Extreme weather reports worldwide

High gusts

Station
 
Location
 
Name
 
Wind
Knots
Gust
Knots
Vis
SM
Temp/Dew
C
Baro
inHg
METAR
 
LVM KLVM Livingston, US Mission Field 33 55 10 8/-5 30.05 KLVM 301753Z AUTO 22033G55KT 10SM OVC100 09/M05 A3005 RMK AO2 PK WND 22055/1751 PRESFR SLP181 T00891050 10089 20044 56015
ETHA Altenstadt, DE Altenstadt Army Airfield 35 52 1.68 1/1 29.85 ETHA 301720Z 26035G52KT 2700 -SNRA BLSN BKN016 01/01 Q1011 BLACKYLO
CWLC 43 49 8/6 CWLC 301700Z AUTO 13043G49KT 08/06 RMK AO1 PK WND 13051/1636 T00830063
CZF PACZ Cape Romanzof, US Cape Romanzof LRRS Airport 35 47 2.5 -16/-19 29.52 PACZ 301755Z AUTO 36035G47KT 200V100 2 1/2SM -SN BR BKN017 M17/M20 A2952 RMK AO2 SNB1555 SLP016 P0000 60000 T11691197 11167 21190 53003
TZX LTCG Trabzon, TR Trabzon International Airport 32 46 6.21 15/10 29.59 LTCG 301750Z 29032G46KT 9999 BKN033 15/10 Q1002 BECMG TL1850 24015G25KT

Station
 
Location
 
Name
 
Wind
Knots
Gust
Knots
Vis
SM
Temp/Dew
C
Baro
inHg
METAR
 
ETHN Niederstetten, DE Niederstetten Army Air Base 29 44 4.35 1/1 29.76 ETHN 301720Z 26029G44KT 7000 R25/0300N -RASN BKN003 OVC008 01/01 Q1008 YLO YLO
CWHL 33 43 8/6 CWHL 301700Z AUTO 15033G43KT 08/07 RMK AO1 4PAST HR 6049 PK WND 15043/1651 SLP909 P0002 T00800066 50004
HND RJTT Ota, Tokyo, JP Tokyo Haneda International Airport 33 43 3.73 18/16 29.68 RJTT 301732Z 18033G43KT 6000 R16R/P2000N R22/P2000N R16L/P2000N R23/1100VP2000D +SHRA SQ FEW009 SCT015 FEW020CB BKN030 18/16 Q1005 RMK 1ST009 3CU015 1CB020 5CU030 A2968 CB 25KM W MOV N
RJOP Komatsushima, JP JMSDF Komatsushima Heliport 27 42 6.21 15/9 29.59 RJOP 301751Z 30027G42KT 260V330 9999 FEW008 BKN020 BKN100 15/09 Q1002 RMK 2ST008 6CU020 7AC100 A2961
CWGM 23 41 7/-2 CWGM 301700Z AUTO 22023G41KT 07/M02 RMK AO1 PK WND 23051/1624 T00731020
CWQS 31 41 9/9 CWQS 301700Z AUTO 18031G41KT 10/10 RMK AO1 PK WND 17041/1634 SLP890 T00990095 56030
CWZV 36 41 9/9 CWZV 301700Z AUTO 20036G41KT 09/09 RMK AO1 8010 PK WND 20042/1633 SLP968 T00920091 50003
CWSA 34 41 9 7/1 29.61 CWSA 301709Z AUTO 25034G41KT 9SM FEW032 07/01 A2961 RMK SLP028
KDUB 27 41 10 3/-8 30.15 KDUB 301735Z AUTO 34027G41KT 10SM CLR 03/M08 A3015 RMK AO2
PHO PAPO Point Hope, US Point Hope Airport 32 41 1 -20/-22 29.81 PAPO 301756Z AUTO 04032G41KT 1SM -SN BR OVC012 M21/M23 A2981 RMK AO2 PK WND 03041/1751 SLP094 6//// T12061228 11189 21206 58004 FZRANO PNO $
CWEK 33 40 9/6 CWEK 301700Z AUTO 16033G40KT 10/06 RMK AO1 PRESFR 8074 PK WND 16040/1657 SLP893 T00950063 50018
CWJU 20 40 9/8 CWJU 301700Z AUTO 23020G40KT 09/09 RMK AO1 PK WND 29041/1636 SLP840 T00910087 56069
CWLP 32 40 7/6 CWLP 301700Z AUTO 12032G40KT 08/07 RMK AO1 4PAST HR 0002 PK WND 11041/1614 SLP082 P0005 T00750066 50064
RMQ RCMQ Taichung City, TW Taichung Ching Chuang Kang Airport 30 40 6.21 15/10 30.00 RCMQ 301700Z 01030G40KT 9999 FEW010 SCT030 15/10 Q1016 RMK A3002
CCH SCCC Chile Chico, CL Chile Chico Airport 28 40 6.21 24/-3 29.68 SCCC 301700Z 29028G40KT CAVOK 24/M03 Q1005
OBF EDMO DE Oberpfaffenhofen Airport 27 40 6.21 3/0 29.82 EDMO 301750Z AUTO 25027G40KT 9999 // BKN016/// BKN025/// OVC044/// 03/00 Q1010
KGBK 7 40 10 24/13 30.17 KGBK 301755Z AUTO 09007G40KT 040V120 10SM CLR 24/13 A3017 RMK A01
UTO PAIM Utopia Creek, US Indian Mountain LRRS Airport 25 39 10 -19/-28 29.33 PAIM 301655Z 04025G39KT 310V100 10SM -SHSN OVC085 M19/M28 A2933 RMK AO2A SNE1641SHSNB1641 SLP987
CWRO 32 39 8/ CWRO 301700Z AUTO 16032G39KT 09/ RMK AO1 PK WND 15043/1622 SLP862 T0086 56066
DHT KDHT Dalhart, US Dalhart Municipal Airport 28 39 10 14/-1 30.18 KDHT 301753Z AUTO 36028G39KT 10SM CLR 14/M01 A3018 RMK AO2 PK WND 01041/1704 SLP201 T01441011 10144 20017 51031
BIG PABI Delta Junction Ft Greely, US Allen Army Airfield 26 39 10 -17/-22 29.12 PABI 301753Z 11026G39KT 10SM BKN200 M18/M23 A2912 RMK AO2 PK WND 12039/1745 SLP914 BLDRSN VC ALOQDS T11781228 11178 21194 56018
LIVF 23 38 6.21 4/-11 29.94 LIVF 301655Z 17023G38KT CAVOK 04/M11 Q1014 RMK FEW FEW200 MON LIB VAL NIL VIS MIN 9999
YYT CYYT St. John's, CA St. John's International Airport 28 38 1 12/12 29.32 CYYT 301700Z 19028G38KT 1SM R16/P6000FT/N -RA BR OVC002 12/12 A2932 RMK FG5ST3 PRESFR SLP934 DENSITY ALT 900FT
RTN KRTN Raton, US Raton Municipal-Crews Field 24 38 10 12/-8 30.27 KRTN 301753Z AUTO 02024G38KT 10SM CLR 13/M08 A3027 RMK AO2 PK WND 01039/1728 SLP218 T01281083 10128 21022 50016
CDB PACD Cold Bay, US Cold Bay Airport 25 38 0.75 -8/-10 29.54 PACD 301753Z 32025G38KT 3/4SM -SN BR BKN024 BKN030 OVC038 M08/M11 A2954 RMK AO2 PK WND 32038/1747 SNE09B45 SLP004 P0000 60006 T10831106 11078 21094 50015 $
NLG PAOU Nelson Lagoon, US Nelson Lagoon Airport 29 38 3 -8/-12 29.43 PAOU 301756Z AUTO 32029G38KT 3SM -SN SCT030 BKN041 M09/M13 A2943 RMK AO2 PK WND 32039/1731 SLP967 P0000 60000 T10891128 11089 21094 53019 FZRANO
K1AM 31 37 10 9/-8 29.99 K1AM 301658Z AUTO 20031G37KT 10SM BKN095 BKN120 10/M09 A2999 RMK AO2 PK WND 22039/09 SLP120 T00981089 $
ETEB DE Ansbach Army Heliport 21 37 6.21 2/2 29.76 ETEB 301729Z AUTO 26021G37KT 9999 OVC009 02/02 A2976 RMK AO2 RAB10E26DZB26E29DZB29 SLP114 FZRANO $
URFF 23 37 3.04 3/3 29.26 URFF 301730Z 02012G19MPS 4900 -SHRA BKN003 OVC017CB 03/03 Q0991 R01/290495 TEMPO 1100 TSRA BR RMK OBST OBSC
JER EGJJ Saint Helier, JE Jersey Airport 26 37 6.21 11/10 29.94 EGJJ 301750Z 25026G37KT 9999 -RA FEW003 BKN006 11/10 Q1014 RERA
MWX RKJB Piseo-ri (Muan), KR Muan International Airport 22 37 6.21 5/-1 30.12 RKJB 301751Z AUTO 33022G37KT 9999 RA NCD 05/M01 Q1020
ILH ETIK Storck Barracks, DE Illesheim Air Base 25 36 6.21 3/3 29.78 ETIK 301713Z AUTO 24025G36KT 9999 BKN011 OVC016 03/03 A2978 RMK AO2 DZB03E13 SLP101 $
LKCV Čáslav, CZ Čáslav Air Base 24 36 6.21 4/0 29.50 LKCV 301730Z 26024G36KT 9999 FEW029 BKN036 OVC090 04/00 Q0999 NOSIG RMK BLU BLU
KDUX Dumas, US Moore County Airport 27 36 10 13/-1 30.13 KDUX 301735Z AUTO 34027G36KT 10SM SCT006 13/M01 A3013 RMK AO2 T01301015
EHM PAEH Cape Newenham, US Cape Newenham LRRS Airport 31 36 8 -21/-24 29.37 PAEH 301755Z AUTO 35031G36KT 310V010 8SM BKN015 M21/M24 A2937 RMK AO2 PK WND 36038/1735 SLP971 T12121244 11201 21215 52012
HYG PAHY Hydaburg, US Hydaburg Seaplane Base 26 36 1.5 8/7 29.00 PAHY 301756Z AUTO 11026G36KT 1 1/2SM RA BR BKN019 OVC026 09/08 A2900 RMK AO2 SLP817 6//// T00890078 10089 20067 56063 PNO $
CWNE 29 35 0/-2 CWNE 301700Z AUTO 29029G35KT 01/M03 RMK AO1 1016 PK WND 28035/1650 SLP986 T00071028 50009
KRR URKK Krasnodar, RU Krasnodar Pashkovsky International Airport 19 35 6.21 11/8 29.38 URKK 301730Z 25010G18MPS 200V290 9999 VCTS -SHRA SCT014 BKN028CB 11/08 Q0995 WS R23L R23L/290060 TEMPO VRB09G16MPS 1000 TSRA BKN004 BKN020CB RMK QFE743
CPR KCPR Casper, US Casper-Natrona County International Airport 27 35 10 7/-2 30.10 KCPR 301753Z 22027G35KT 10SM -RA CLR 07/M02 A3010 RMK AO2 PK WND 21035/1752 RAB50 SLP189 P0000 60000 T00721022 10072 20006 56032
KTN PAKT Ketchikan, US Ketchikan International Airport 25 35 3 7/5 29.07 PAKT 301753Z 13025G35KT 3SM RA BR OVC016 07/06 A2907 RMK AO2 PK WND 13038/1703 SLP846 HARBOR WIND 09020KT ROOF WIND 15040G50KT 6//// T00720056 10072 20061 56073 PNO $
CAO KCAO Clayton, US Clayton Municipal Airpark 26 35 10 13/-2 30.21 KCAO 301755Z AUTO 01026G35KT 10SM CLR 14/M02 A3021 RMK AO2 PK WND 35036/1710 SLP199 T01391022 10150 20117 50035
KVC PAVC King Cove, US King Cove Airport 12 35 1 -8/-10 29.53 PAVC 301756Z AUTO 31012G35KT 1SM -SN BR BKN010 OVC015 M08/M11 A2953 RMK AO2 PK WND 26035/1752 VIS 1/4V1 3/4 CIG 007V013 SLP002 P0000 60000 T10831106 11083 21094 53029 FZRANO
CWWL 29 34 9/8 CWWL 301700Z AUTO 15029G34KT 10/09 RMK AO1 6046 PK WND 14041/1611 SLP911 T00980088 50018
YEK CYEK Arviat, CA Arviat Airport 27 34 0.5 -20/-22 29.61 CYEK 301700Z 32027G34KT 1/2SM IC BLSN OVC120 M20/M22 A2961 RMK BLSN7AC1 SLP031
CJU RKPC Jeju City, KR Jeju International Airport 22 34 6.21 9/2 30.12 RKPC 301700Z 32022G34KT 290V350 9999 BKN030 09/02 Q1020 WS ALL RWY NOSIG